Time,TemperatureF,DewpointF,PressureIn,WindDirection,WindDirectionDegrees,WindSpeedMPH,WindSpeedGustMPH,Humidity,HourlyPrecipIn,Conditions,Clouds,dailyrainin,SolarRadiationWatts/m^2,SoftwareType,DateUTC
2013-08-27 00:05:00,59.2,49.0,29.79,SSE,153,1.0,3.0,70,0.00,,,0.00,0,weatherlink.com 1.10,2013-08-27 07:05:00,
2013-08-27 00:20:00,58.8,49.0,29.79,SSE,153,1.0,2.0,70,0.00,,,0.00,0,weatherlink.com 1.10,2013-08-27 07:20:00,
2013-08-27 00:35:00,58.5,49.0,29.78,SSE,153,2.0,2.0,70,0.00,,,0.00,0,weatherlink.com 1.10,2013-08-27 07:35:00,
2013-08-27 00:50:00,58.1,49.0,29.78,SSE,153,2.0,3.0,71,0.00,,,0.00,0,weatherlink.com 1.10,2013-08-27 07:50:00,
2013-08-27 01:05:00,57.6,48.0,29.78,SSE,153,1.0,2.0,71,0.00,,,0.00,0,weatherlink.com 1.10,2013-08-27 08:05:00,
2013-08-27 01:20:00,57.3,48.0,29.78,SSE,153,2.0,2.0,71,0.00,,,0.00,0,weatherlink.com 1.10,2013-08-27 08:20:00,
2013-08-27 01:35:00,56.9,48.0,29.77,SSE,153,2.0,2.0,72,0.00,,,0.00,0,weatherlink.com 1.10,2013-08-27 08:35:00,
2013-08-27 01:50:00,56.4,48.0,29.77,SSE,153,2.0,3.0,73,0.00,,,0.00,0,weatherlink.com 1.10,2013-08-27 08:50:00,
2013-08-27 02:06:00,56.0,47.0,29.77,SSE,153,2.0,3.0,73,0.00,,,0.00,0,weatherlink.com 1.10,2013-08-27 09:06:00,
2013-08-27 02:21:00,55.7,48.0,29.76,SSE,153,2.0,3.0,74,0.00,,,0.00,0,weatherlink.com 1.10,2013-08-27 09:21:00,
2013-08-27 02:36:00,55.5,48.0,29.76,SSE,152,1.0,3.0,75,0.00,,,0.00,0,weatherlink.com 1.10,2013-08-27 09:36:00,
2013-08-27 02:51:00,55.4,48.0,29.76,SSE,152,2.0,2.0,75,0.00,,,0.00,0,weatherlink.com 1.10,2013-08-27 09:51:00,
2013-08-27 03:06:00,55.1,48.0,29.75,SSE,152,2.0,3.0,76,0.00,,,0.00,0,weatherlink.com 1.10,2013-08-27 10:06:00,
2013-08-27 03:21:00,54.7,48.0,29.75,SSE,152,3.0,3.0,77,0.00,,,0.00,0,weatherlink.com 1.10,2013-08-27 10:21:00,
2013-08-27 03:36:00,54.2,47.0,29.75,SSE,152,2.0,3.0,78,0.00,,,0.00,0,weatherlink.com 1.10,2013-08-27 10:36:00,
2013-08-27 03:51:00,54.1,47.0,29.76,SSE,152,2.0,3.0,78,0.00,,,0.00,0,weatherlink.com 1.10,2013-08-27 10:51:00,
2013-08-27 04:06:00,54.0,48.0,29.76,SSE,152,2.0,3.0,79,0.00,,,0.00,0,weatherlink.com 1.10,2013-08-27 11:06:00,
2013-08-27 04:21:00,53.7,47.0,29.75,SSE,152,1.0,2.0,79,0.00,,,0.00,0,weatherlink.com 1.10,2013-08-27 11:21:00,
2013-08-27 04:36:00,53.7,47.0,29.75,SE,145,2.0,3.0,79,0.00,,,0.00,0,weatherlink.com 1.10,2013-08-27 11:36:00,
2013-08-27 04:51:00,53.7,48.0,29.75,SE,145,2.0,3.0,80,0.00,,,0.00,0,weatherlink.com 1.10,2013-08-27 11:51:00,
2013-08-27 05:06:00,53.5,48.0,29.75,SE,145,2.0,3.0,80,0.00,,,0.00,0,weatherlink.com 1.10,2013-08-27 12:06:00,
2013-08-27 05:21:00,53.5,48.0,29.75,SE,141,2.0,3.0,80,0.00,,,0.00,0,weatherlink.com 1.10,2013-08-27 12:21:00,
2013-08-27 05:36:00,53.7,48.0,29.75,SE,141,2.0,3.0,80,0.00,,,0.00,0,weatherlink.com 1.10,2013-08-27 12:36:00,
2013-08-27 05:51:00,53.8,48.0,29.76,SE,141,3.0,3.0,80,0.00,,,0.00,0,weatherlink.com 1.10,2013-08-27 12:51:00,
2013-08-27 06:06:00,53.6,48.0,29.76,SE,141,0.0,3.0,81,0.00,,,0.00,0,weatherlink.com 1.10,2013-08-27 13:06:00,
2013-08-27 06:21:00,53.2,48.0,29.76,SE,141,1.0,2.0,82,0.00,,,0.00,0,weatherlink.com 1.10,2013-08-27 13:21:00,
2013-08-27 06:36:00,52.8,48.0,29.76,SE,141,2.0,2.0,83,0.00,,,0.00,0,weatherlink.com 1.10,2013-08-27 13:36:00,
2013-08-27 06:51:00,52.9,48.0,29.77,SE,141,2.0,2.0,83,0.00,,,0.00,11,weatherlink.com 1.10,2013-08-27 13:51:00,
2013-08-27 07:06:00,53.1,48.0,29.77,SE,141,2.0,2.0,83,0.00,,,0.00,14,weatherlink.com 1.10,2013-08-27 14:06:00,
2013-08-27 07:36:00,54.6,50.0,29.77,SE,141,1.0,2.0,83,0.00,,,0.00,21,weatherlink.com 1.10,2013-08-27 14:36:00,
2013-08-27 07:51:00,56.0,50.0,29.77,SE,141,0.0,2.0,81,0.00,,,0.00,23,weatherlink.com 1.10,2013-08-27 14:51:00,
2013-08-27 08:06:00,56.8,50.0,29.77,SE,141,1.0,1.0,78,0.00,,,0.00,35,weatherlink.com 1.10,2013-08-27 15:06:00,
2013-08-27 08:21:00,57.7,51.0,29.77,WNW,284,2.0,3.0,78,0.00,,,0.00,30,weatherlink.com 1.10,2013-08-27 15:21:00,
2013-08-27 08:36:00,59.5,51.0,29.77,NW,309,3.0,3.0,74,0.00,,,0.00,70,weatherlink.com 1.10,2013-08-27 15:36:00,
2013-08-27 08:51:00,62.4,52.0,29.77,WNW,284,3.0,5.0,69,0.00,,,0.00,374,weatherlink.com 1.10,2013-08-27 15:51:00,
2013-08-27 09:06:00,66.0,52.0,29.77,NNW,346,2.0,4.0,62,0.00,,,0.00,420,weatherlink.com 1.10,2013-08-27 16:06:00,
2013-08-27 09:21:00,68.7,53.0,29.77,NNE,14,2.0,3.0,57,0.00,,,0.00,469,weatherlink.com 1.10,2013-08-27 16:21:00,
2013-08-27 09:37:00,70.6,54.0,29.77,NNW,343,2.0,5.0,55,0.00,,,0.00,515,weatherlink.com 1.10,2013-08-27 16:37:00,
2013-08-27 09:52:00,72.4,53.0,29.76,North,360,1.0,5.0,50,0.00,,,0.00,557,weatherlink.com 1.10,2013-08-27 16:52:00,
2013-08-27 10:07:00,73.4,53.0,29.76,NW,319,2.0,5.0,49,0.00,,,0.00,599,weatherlink.com 1.10,2013-08-27 17:07:00,
2013-08-27 10:22:00,75.2,55.0,29.75,WNW,295,2.0,6.0,49,0.00,,,0.00,635,weatherlink.com 1.10,2013-08-27 17:22:00,
2013-08-27 10:37:00,76.9,54.0,29.76,NW,308,3.0,4.0,46,0.00,,,0.00,673,weatherlink.com 1.10,2013-08-27 17:37:00,
2013-08-27 10:52:00,78.4,54.0,29.76,West,263,2.0,6.0,43,0.00,,,0.00,707,weatherlink.com 1.10,2013-08-27 17:52:00,
2013-08-27 11:07:00,80.4,55.0,29.75,West,265,3.0,7.0,41,0.00,,,0.00,737,weatherlink.com 1.10,2013-08-27 18:07:00,
2013-08-27 11:22:00,82.3,54.0,29.75,WNW,286,3.0,6.0,38,0.00,,,0.00,763,weatherlink.com 1.10,2013-08-27 18:22:00,
2013-08-27 11:37:00,83.7,55.0,29.75,SSW,213,3.0,7.0,37,0.00,,,0.00,795,weatherlink.com 1.10,2013-08-27 18:37:00,
2013-08-27 11:52:00,85.0,54.0,29.75,WSW,255,4.0,7.0,35,0.00,,,0.00,812,weatherlink.com 1.10,2013-08-27 18:52:00,
2013-08-27 12:07:00,85.3,54.0,29.74,WNW,296,4.0,8.0,34,0.00,,,0.00,826,weatherlink.com 1.10,2013-08-27 19:07:00,
2013-08-27 12:22:00,86.8,54.0,29.74,WNW,285,5.0,8.0,33,0.00,,,0.00,840,weatherlink.com 1.10,2013-08-27 19:22:00,
2013-08-27 12:37:00,87.4,56.0,29.74,WSW,240,8.0,10.0,34,0.00,,,0.00,853,weatherlink.com 1.10,2013-08-27 19:37:00,
2013-08-27 12:52:00,88.0,54.0,29.73,WSW,252,3.0,10.0,31,0.00,,,0.00,851,weatherlink.com 1.10,2013-08-27 19:52:00,
2013-08-27 13:08:00,89.0,54.0,29.73,WSW,237,1.0,8.0,30,0.00,,,0.00,861,weatherlink.com 1.10,2013-08-27 20:08:00,
2013-08-27 13:23:00,89.1,53.0,29.73,East,86,5.0,7.0,29,0.00,,,0.00,856,weatherlink.com 1.10,2013-08-27 20:23:00,
2013-08-27 13:38:00,88.3,53.0,29.72,West,273,5.0,10.0,30,0.00,,,0.00,849,weatherlink.com 1.10,2013-08-27 20:38:00,
2013-08-27 13:53:00,89.1,53.0,29.73,SW,215,1.0,10.0,29,0.00,,,0.00,842,weatherlink.com 1.10,2013-08-27 20:53:00,
2013-08-27 14:08:00,89.1,53.0,29.72,WSW,254,5.0,11.0,29,0.00,,,0.00,831,weatherlink.com 1.10,2013-08-27 21:08:00,
2013-08-27 14:23:00,89.2,52.0,29.72,WSW,257,3.0,8.0,28,0.00,,,0.00,821,weatherlink.com 1.10,2013-08-27 21:23:00,
2013-08-27 14:53:00,89.4,50.0,29.71,WNW,302,8.0,10.0,26,0.00,,,0.00,777,weatherlink.com 1.10,2013-08-27 21:53:00,
2013-08-27 15:08:00,88.6,53.0,29.70,SSW,197,6.0,11.0,29,0.00,,,0.00,747,weatherlink.com 1.10,2013-08-27 22:08:00,
2013-08-27 15:23:00,89.2,52.0,29.70,ESE,116,2.0,7.0,28,0.00,,,0.00,721,weatherlink.com 1.10,2013-08-27 22:23:00,
2013-08-27 15:38:00,88.3,52.0,29.70,West,264,7.0,11.0,29,0.00,,,0.00,686,weatherlink.com 1.10,2013-08-27 22:38:00,
2013-08-27 16:49:00,86.9,52.0,29.69,ENE,64,3.0,10.0,30,0.00,,,0.00,506,weatherlink.com 1.10,2013-08-27 23:49:00,
2013-08-27 17:08:00,86.6,53.0,29.68,West,279,9.0,12.0,31,0.00,,,0.00,445,weatherlink.com 1.10,2013-08-28 00:08:00,
2013-08-27 17:23:00,85.2,50.0,29.68,West,271,5.0,10.0,29,0.00,,,0.00,399,weatherlink.com 1.10,2013-08-28 00:23:00,
2013-08-27 17:38:00,84.3,50.0,29.69,South,175,3.0,10.0,30,0.00,,,0.00,350,weatherlink.com 1.10,2013-08-28 00:38:00,
2013-08-27 18:09:00,81.4,53.0,29.69,SE,128,4.0,8.0,38,0.00,,,0.00,251,weatherlink.com 1.10,2013-08-28 01:09:00,
2013-08-27 18:23:00,79.8,53.0,29.69,South,176,4.0,10.0,39,0.00,,,0.00,207,weatherlink.com 1.10,2013-08-28 01:23:00,
2013-08-27 18:53:00,76.3,53.0,29.68,East,85,3.0,6.0,44,0.00,,,0.00,100,weatherlink.com 1.10,2013-08-28 01:53:00,
2013-08-27 19:08:00,74.6,53.0,29.68,WSW,238,1.0,6.0,47,0.00,,,0.00,21,weatherlink.com 1.10,2013-08-28 02:08:00,
2013-08-27 19:24:00,73.1,53.0,29.69,South,169,1.0,6.0,50,0.00,,,0.00,19,weatherlink.com 1.10,2013-08-28 02:24:00,
2013-08-27 19:39:00,71.7,53.0,29.69,ESE,112,1.0,4.0,52,0.00,,,0.00,7,weatherlink.com 1.10,2013-08-28 02:39:00,
2013-08-27 19:54:00,70.1,53.0,29.69,SE,136,2.0,3.0,55,0.00,,,0.00,0,weatherlink.com 1.10,2013-08-28 02:54:00,
2013-08-27 20:24:00,67.3,53.0,29.70,SSE,149,1.0,2.0,60,0.00,,,0.00,0,weatherlink.com 1.10,2013-08-28 03:24:00,
2013-08-27 20:39:00,65.6,53.0,29.70,South,178,2.0,2.0,64,0.00,,,0.00,0,weatherlink.com 1.10,2013-08-28 03:39:00,
2013-08-27 20:54:00,64.6,52.0,29.71,SSE,157,2.0,2.0,65,0.00,,,0.00,0,weatherlink.com 1.10,2013-08-28 03:54:00,
2013-08-27 21:09:00,64.5,53.0,29.71,SSE,152,2.0,2.0,66,0.00,,,0.00,0,weatherlink.com 1.10,2013-08-28 04:09:00,
2013-08-27 21:24:00,64.1,53.0,29.71,SSE,148,1.0,3.0,67,0.00,,,0.00,0,weatherlink.com 1.10,2013-08-28 04:24:00,
2013-08-27 21:39:00,63.5,52.0,29.71,SSE,158,2.0,3.0,67,0.00,,,0.00,0,weatherlink.com 1.10,2013-08-28 04:39:00,
2013-08-27 21:54:00,62.8,52.0,29.72,SSE,158,1.0,2.0,69,0.00,,,0.00,0,weatherlink.com 1.10,2013-08-28 04:54:00,
2013-08-27 22:09:00,62.2,52.0,29.72,SSE,158,2.0,2.0,70,0.00,,,0.00,0,weatherlink.com 1.10,2013-08-28 05:09:00,
2013-08-27 22:24:00,61.7,52.0,29.71,SSE,147,2.0,3.0,71,0.00,,,0.00,0,weatherlink.com 1.10,2013-08-28 05:24:00,
2013-08-27 22:39:00,61.4,52.0,29.71,SSE,147,2.0,3.0,72,0.00,,,0.00,0,weatherlink.com 1.10,2013-08-28 05:39:00,
2013-08-27 22:54:00,61.3,53.0,29.72,South,173,2.0,2.0,73,0.00,,,0.00,0,weatherlink.com 1.10,2013-08-28 05:54:00,
2013-08-27 23:09:00,61.2,52.0,29.72,WSW,245,1.0,3.0,73,0.00,,,0.00,0,weatherlink.com 1.10,2013-08-28 06:09:00,
2013-08-27 23:24:00,61.3,53.0,29.73,SSE,157,2.0,4.0,73,0.00,,,0.00,0,weatherlink.com 1.10,2013-08-28 06:24:00,
2013-08-27 23:39:00,61.1,53.0,29.73,SW,215,1.0,4.0,75,0.00,,,0.00,0,weatherlink.com 1.10,2013-08-28 06:39:00,
2013-08-27 23:54:00,60.8,53.0,29.72,WSW,241,1.0,3.0,75,0.00,,,0.00,0,weatherlink.com 1.10,2013-08-28 06:54:00,